sensor_id;sensor_type;location;lat;lon;timestamp;temperature;humidity
22607;DHT22;11470;20.968;105.834;2023-04-24T00:00:03;27.10;99.90
22607;DHT22;11470;20.968;105.834;2023-04-24T00:05:17;27.20;99.90
22607;DHT22;11470;20.968;105.834;2023-04-24T00:10:23;27.50;99.90
22607;DHT22;11470;20.968;105.834;2023-04-24T00:15:28;27.80;99.90
22607;DHT22;11470;20.968;105.834;2023-04-24T00:20:34;27.90;99.90
22607;DHT22;11470;20.968;105.834;2023-04-24T00:25:44;28.00;99.90
22607;DHT22;11470;20.968;105.834;2023-04-24T00:30:49;28.10;99.90
22607;DHT22;11470;20.968;105.834;2023-04-24T00:35:56;28.10;99.90
22607;DHT22;11470;20.968;105.834;2023-04-24T00:41:01;28.10;99.90
22607;DHT22;11470;20.968;105.834;2023-04-24T00:46:06;28.30;99.90
22607;DHT22;11470;20.968;105.834;2023-04-24T00:51:14;28.50;99.90
22607;DHT22;11470;20.968;105.834;2023-04-24T00:56:20;28.80;99.90
22607;DHT22;11470;20.968;105.834;2023-04-24T01:01:25;29.20;99.90
22607;DHT22;11470;20.968;105.834;2023-04-24T01:06:32;29.20;99.90
22607;DHT22;11470;20.968;105.834;2023-04-24T01:11:38;29.00;99.90
22607;DHT22;11470;20.968;105.834;2023-04-24T01:16:47;28.60;99.90
22607;DHT22;11470;20.968;105.834;2023-04-24T01:21:54;28.40;99.90
22607;DHT22;11470;20.968;105.834;2023-04-24T01:27:04;28.50;99.90
22607;DHT22;11470;20.968;105.834;2023-04-24T01:32:10;28.60;99.90
22607;DHT22;11470;20.968;105.834;2023-04-24T01:37:16;28.70;99.90
22607;DHT22;11470;20.968;105.834;2023-04-24T01:42:22;28.90;99.90
22607;DHT22;11470;20.968;105.834;2023-04-24T01:47:30;29.10;99.90
22607;DHT22;11470;20.968;105.834;2023-04-24T01:52:38;29.50;99.90
22607;DHT22;11470;20.968;105.834;2023-04-24T01:57:44;29.60;99.90
22607;DHT22;11470;20.968;105.834;2023-04-24T02:02:50;30.00;99.90
22607;DHT22;11470;20.968;105.834;2023-04-24T02:07:56;30.90;99.90
22607;DHT22;11470;20.968;105.834;2023-04-24T02:13:02;31.60;99.90
22607;DHT22;11470;20.968;105.834;2023-04-24T02:18:09;32.10;99.90
22607;DHT22;11470;20.968;105.834;2023-04-24T02:23:16;32.00;99.90
22607;DHT22;11470;20.968;105.834;2023-04-24T02:28:22;32.10;99.90
22607;DHT22;11470;20.968;105.834;2023-04-24T02:33:28;31.70;99.90
22607;DHT22;11470;20.968;105.834;2023-04-24T02:38:40;31.00;99.90
22607;DHT22;11470;20.968;105.834;2023-04-24T02:43:48;30.80;99.90
22607;DHT22;11470;20.968;105.834;2023-04-24T02:48:54;31.10;99.90
22607;DHT22;11470;20.968;105.834;2023-04-24T02:53:59;31.50;99.90
22607;DHT22;11470;20.968;105.834;2023-04-24T02:59:05;32.10;99.90
22607;DHT22;11470;20.968;105.834;2023-04-24T03:04:12;32.50;99.90
22607;DHT22;11470;20.968;105.834;2023-04-24T03:09:17;32.70;99.90
22607;DHT22;11470;20.968;105.834;2023-04-24T03:14:23;32.80;99.90
22607;DHT22;11470;20.968;105.834;2023-04-24T03:19:29;33.30;99.90
22607;DHT22;11470;20.968;105.834;2023-04-24T03:24:40;32.70;99.90
22607;DHT22;11470;20.968;105.834;2023-04-24T03:29:47;32.30;99.90
22607;DHT22;11470;20.968;105.834;2023-04-24T03:34:56;32.10;99.90
22607;DHT22;11470;20.968;105.834;2023-04-24T03:40:03;32.10;99.90
22607;DHT22;11470;20.968;105.834;2023-04-24T03:45:16;32.50;99.90
22607;DHT22;11470;20.968;105.834;2023-04-24T03:50:25;33.40;99.90
22607;DHT22;11470;20.968;105.834;2023-04-24T03:55:34;34.30;99.90
22607;DHT22;11470;20.968;105.834;2023-04-24T04:00:40;34.90;99.90
22607;DHT22;11470;20.968;105.834;2023-04-24T04:06:18;35.40;99.90
22607;DHT22;11470;20.968;105.834;2023-04-24T04:11:26;35.70;99.80
22607;DHT22;11470;20.968;105.834;2023-04-24T04:16:32;35.80;99.90
22607;DHT22;11470;20.968;105.834;2023-04-24T04:21:38;35.60;99.30
22607;DHT22;11470;20.968;105.834;2023-04-24T04:26:59;35.40;99.20
22607;DHT22;11470;20.968;105.834;2023-04-24T04:32:24;34.90;98.20
22607;DHT22;11470;20.968;105.834;2023-04-24T04:37:32;34.90;99.90
22607;DHT22;11470;20.968;105.834;2023-04-24T04:43:05;34.20;99.90
22607;DHT22;11470;20.968;105.834;2023-04-24T04:48:18;33.30;99.90
22607;DHT22;11470;20.968;105.834;2023-04-24T04:53:25;32.50;99.90
22607;DHT22;11470;20.968;105.834;2023-04-24T04:58:31;31.80;99.90
22607;DHT22;11470;20.968;105.834;2023-04-24T05:03:39;31.70;99.90
22607;DHT22;11470;20.968;105.834;2023-04-24T05:08:48;31.40;99.90
22607;DHT22;11470;20.968;105.834;2023-04-24T05:14:17;31.50;99.90
22607;DHT22;11470;20.968;105.834;2023-04-24T05:19:24;32.00;99.90
22607;DHT22;11470;20.968;105.834;2023-04-24T05:24:34;32.70;99.90
22607;DHT22;11470;20.968;105.834;2023-04-24T05:29:49;33.30;99.90
22607;DHT22;11470;20.968;105.834;2023-04-24T05:34:55;33.80;99.90
22607;DHT22;11470;20.968;105.834;2023-04-24T05:40:01;34.60;99.90
22607;DHT22;11470;20.968;105.834;2023-04-24T05:45:06;35.20;99.90
22607;DHT22;11470;20.968;105.834;2023-04-24T05:50:12;36.60;97.70
22607;DHT22;11470;20.968;105.834;2023-04-24T05:55:18;38.20;93.40
22607;DHT22;11470;20.968;105.834;2023-04-24T06:00:25;38.60;90.00
22607;DHT22;11470;20.968;105.834;2023-04-24T06:05:37;37.70;90.60
22607;DHT22;11470;20.968;105.834;2023-04-24T06:10:44;36.20;93.40
22607;DHT22;11470;20.968;105.834;2023-04-24T06:15:53;35.40;96.50
22607;DHT22;11470;20.968;105.834;2023-04-24T06:21:10;35.10;97.80
22607;DHT22;11470;20.968;105.834;2023-04-24T06:26:20;35.90;93.80
22607;DHT22;11470;20.968;105.834;2023-04-24T06:31:50;34.90;97.00
22607;DHT22;11470;20.968;105.834;2023-04-24T06:36:56;34.40;99.00
22607;DHT22;11470;20.968;105.834;2023-04-24T06:42:02;34.30;97.80
22607;DHT22;11470;20.968;105.834;2023-04-24T06:47:10;34.20;99.80
22607;DHT22;11470;20.968;105.834;2023-04-24T06:52:19;33.70;99.90
22607;DHT22;11470;20.968;105.834;2023-04-24T06:57:24;34.40;99.90
22607;DHT22;11470;20.968;105.834;2023-04-24T07:02:33;35.60;96.40
22607;DHT22;11470;20.968;105.834;2023-04-24T07:07:39;35.70;96.90
22607;DHT22;11470;20.968;105.834;2023-04-24T07:12:46;36.60;94.70
22607;DHT22;11470;20.968;105.834;2023-04-24T07:17:52;36.30;94.40
22607;DHT22;11470;20.968;105.834;2023-04-24T07:23:01;35.90;95.10
22607;DHT22;11470;20.968;105.834;2023-04-24T07:28:34;34.50;98.30
22607;DHT22;11470;20.968;105.834;2023-04-24T07:33:40;33.20;99.90
22607;DHT22;11470;20.968;105.834;2023-04-24T07:38:46;33.00;99.90
22607;DHT22;11470;20.968;105.834;2023-04-24T07:43:52;33.70;99.90
22607;DHT22;11470;20.968;105.834;2023-04-24T07:48:58;35.00;97.60
22607;DHT22;11470;20.968;105.834;2023-04-24T07:54:16;35.70;96.10
22607;DHT22;11470;20.968;105.834;2023-04-24T07:59:21;36.50;95.70
22607;DHT22;11470;20.968;105.834;2023-04-24T08:04:31;36.10;96.20
22607;DHT22;11470;20.968;105.834;2023-04-24T08:09:37;36.00;96.00
22607;DHT22;11470;20.968;105.834;2023-04-24T08:14:43;35.00;96.40
22607;DHT22;11470;20.968;105.834;2023-04-24T08:19:48;34.20;99.70
22607;DHT22;11470;20.968;105.834;2023-04-24T08:24:56;33.50;99.20
22607;DHT22;11470;20.968;105.834;2023-04-24T08:30:05;32.90;99.90
22607;DHT22;11470;20.968;105.834;2023-04-24T08:35:12;32.50;99.90
22607;DHT22;11470;20.968;105.834;2023-04-24T08:40:27;32.20;99.90
22607;DHT22;11470;20.968;105.834;2023-04-24T08:45:35;32.10;99.90
22607;DHT22;11470;20.968;105.834;2023-04-24T08:50:41;32.00;99.90
22607;DHT22;11470;20.968;105.834;2023-04-24T08:55:48;32.00;99.90
22607;DHT22;11470;20.968;105.834;2023-04-24T09:00:58;32.00;99.90
22607;DHT22;11470;20.968;105.834;2023-04-24T09:06:08;31.90;99.90
22607;DHT22;11470;20.968;105.834;2023-04-24T09:11:15;32.20;99.90
22607;DHT22;11470;20.968;105.834;2023-04-24T09:22:00;32.00;99.90
22607;DHT22;11470;20.968;105.834;2023-04-24T09:27:11;31.90;99.90
22607;DHT22;11470;20.968;105.834;2023-04-24T09:32:22;31.90;99.90
22607;DHT22;11470;20.968;105.834;2023-04-24T09:37:30;31.80;99.90
22607;DHT22;11470;20.968;105.834;2023-04-24T09:43:14;31.70;99.90
22607;DHT22;11470;20.968;105.834;2023-04-24T09:48:13;31.40;99.90
22607;DHT22;11470;20.968;105.834;2023-04-24T09:53:24;31.10;99.90
22607;DHT22;11470;20.968;105.834;2023-04-24T09:58:31;30.90;99.90
22607;DHT22;11470;20.968;105.834;2023-04-24T10:03:36;30.90;99.90
22607;DHT22;11470;20.968;105.834;2023-04-24T10:08:43;30.50;99.90
22607;DHT22;11470;20.968;105.834;2023-04-24T10:13:51;30.20;99.90
22607;DHT22;11470;20.968;105.834;2023-04-24T10:18:59;30.00;99.90
22607;DHT22;11470;20.968;105.834;2023-04-24T10:24:06;29.70;99.90
22607;DHT22;11470;20.968;105.834;2023-04-24T10:29:17;29.70;99.90
22607;DHT22;11470;20.968;105.834;2023-04-24T10:34:23;29.60;99.90
22607;DHT22;11470;20.968;105.834;2023-04-24T10:39:30;29.50;99.90
22607;DHT22;11470;20.968;105.834;2023-04-24T10:44:39;29.50;99.90
22607;DHT22;11470;20.968;105.834;2023-04-24T10:49:45;29.40;99.90
22607;DHT22;11470;20.968;105.834;2023-04-24T10:54:51;29.30;99.90
22607;DHT22;11470;20.968;105.834;2023-04-24T11:00:14;29.10;99.90
22607;DHT22;11470;20.968;105.834;2023-04-24T11:05:22;29.00;99.90
22607;DHT22;11470;20.968;105.834;2023-04-24T11:10:28;28.90;99.90
22607;DHT22;11470;20.968;105.834;2023-04-24T11:15:33;28.70;99.90
22607;DHT22;11470;20.968;105.834;2023-04-24T11:20:43;28.60;99.90
22607;DHT22;11470;20.968;105.834;2023-04-24T11:26:11;28.50;99.90
22607;DHT22;11470;20.968;105.834;2023-04-24T11:37:57;28.30;99.90
22607;DHT22;11470;20.968;105.834;2023-04-24T11:43:07;28.20;99.90
22607;DHT22;11470;20.968;105.834;2023-04-24T11:48:19;28.10;99.90
22607;DHT22;11470;20.968;105.834;2023-04-24T11:53:26;28.10;99.90
22607;DHT22;11470;20.968;105.834;2023-04-24T11:58:40;28.10;99.90
22607;DHT22;11470;20.968;105.834;2023-04-24T12:03:58;28.10;99.90
22607;DHT22;11470;20.968;105.834;2023-04-24T12:09:11;28.00;99.90
22607;DHT22;11470;20.968;105.834;2023-04-24T12:14:22;28.00;99.90
22607;DHT22;11470;20.968;105.834;2023-04-24T12:19:30;27.90;99.90
22607;DHT22;11470;20.968;105.834;2023-04-24T12:24:59;28.00;99.90
22607;DHT22;11470;20.968;105.834;2023-04-24T12:30:09;27.90;99.90
22607;DHT22;11470;20.968;105.834;2023-04-24T12:35:21;27.90;99.90
22607;DHT22;11470;20.968;105.834;2023-04-24T12:40:31;28.00;99.90
22607;DHT22;11470;20.968;105.834;2023-04-24T12:45:36;27.90;99.90
22607;DHT22;11470;20.968;105.834;2023-04-24T12:50:42;27.90;99.90
22607;DHT22;11470;20.968;105.834;2023-04-24T12:55:53;27.90;99.90
22607;DHT22;11470;20.968;105.834;2023-04-24T13:01:01;27.80;99.90
22607;DHT22;11470;20.968;105.834;2023-04-24T13:18:51;27.80;99.90
22607;DHT22;11470;20.968;105.834;2023-04-24T13:23:58;27.70;99.90
22607;DHT22;11470;20.968;105.834;2023-04-24T13:29:03;27.60;99.90
22607;DHT22;11470;20.968;105.834;2023-04-24T13:34:11;27.70;99.90
22607;DHT22;11470;20.968;105.834;2023-04-24T13:39:16;27.60;99.90
22607;DHT22;11470;20.968;105.834;2023-04-24T13:44:27;27.60;99.90
22607;DHT22;11470;20.968;105.834;2023-04-24T13:49:34;27.50;99.90
22607;DHT22;11470;20.968;105.834;2023-04-24T13:54:40;27.50;99.90
22607;DHT22;11470;20.968;105.834;2023-04-24T13:59:48;27.70;99.90
22607;DHT22;11470;20.968;105.834;2023-04-24T14:04:55;27.60;99.90
22607;DHT22;11470;20.968;105.834;2023-04-24T14:10:02;27.60;99.90
22607;DHT22;11470;20.968;105.834;2023-04-24T14:15:09;27.70;99.90
22607;DHT22;11470;20.968;105.834;2023-04-24T14:20:18;27.70;99.90
22607;DHT22;11470;20.968;105.834;2023-04-24T14:25:32;27.80;99.90
22607;DHT22;11470;20.968;105.834;2023-04-24T14:30:37;27.90;99.90
22607;DHT22;11470;20.968;105.834;2023-04-24T14:35:46;27.70;99.90
22607;DHT22;11470;20.968;105.834;2023-04-24T14:40:52;27.70;99.90
22607;DHT22;11470;20.968;105.834;2023-04-24T14:46:13;27.70;99.90
22607;DHT22;11470;20.968;105.834;2023-04-24T14:51:18;27.50;99.90
22607;DHT22;11470;20.968;105.834;2023-04-24T14:56:28;27.40;99.90
22607;DHT22;11470;20.968;105.834;2023-04-24T15:01:34;27.40;99.90
22607;DHT22;11470;20.968;105.834;2023-04-24T15:06:41;27.40;99.90
22607;DHT22;11470;20.968;105.834;2023-04-24T15:11:46;27.70;99.90
22607;DHT22;11470;20.968;105.834;2023-04-24T15:16:52;27.70;99.90
22607;DHT22;11470;20.968;105.834;2023-04-24T15:22:02;27.70;99.90
22607;DHT22;11470;20.968;105.834;2023-04-24T15:27:10;27.70;99.90
22607;DHT22;11470;20.968;105.834;2023-04-24T15:32:18;27.50;99.90
22607;DHT22;11470;20.968;105.834;2023-04-24T15:37:27;27.40;99.90
22607;DHT22;11470;20.968;105.834;2023-04-24T15:42:33;27.30;99.90
22607;DHT22;11470;20.968;105.834;2023-04-24T15:47:39;27.30;99.90
22607;DHT22;11470;20.968;105.834;2023-04-24T15:52:45;27.20;99.90
22607;DHT22;11470;20.968;105.834;2023-04-24T15:57:51;27.20;99.90
22607;DHT22;11470;20.968;105.834;2023-04-24T16:02:57;27.30;99.90
22607;DHT22;11470;20.968;105.834;2023-04-24T16:08:03;27.40;99.90
22607;DHT22;11470;20.968;105.834;2023-04-24T16:13:09;27.20;99.90
22607;DHT22;11470;20.968;105.834;2023-04-24T16:18:15;27.10;99.90
22607;DHT22;11470;20.968;105.834;2023-04-24T16:23:21;27.00;99.90
22607;DHT22;11470;20.968;105.834;2023-04-24T16:28:26;27.10;99.90
22607;DHT22;11470;20.968;105.834;2023-04-24T16:33:33;27.10;99.90
22607;DHT22;11470;20.968;105.834;2023-04-24T16:38:42;27.10;99.90
22607;DHT22;11470;20.968;105.834;2023-04-24T16:43:49;27.10;99.90
22607;DHT22;11470;20.968;105.834;2023-04-24T16:48:57;27.30;99.90
22607;DHT22;11470;20.968;105.834;2023-04-24T16:54:11;27.20;99.90
22607;DHT22;11470;20.968;105.834;2023-04-24T16:59:51;27.00;99.90
22607;DHT22;11470;20.968;105.834;2023-04-24T17:06:01;26.90;99.90
22607;DHT22;11470;20.968;105.834;2023-04-24T17:17:33;26.70;99.90
22607;DHT22;11470;20.968;105.834;2023-04-24T17:22:38;26.50;99.90
22607;DHT22;11470;20.968;105.834;2023-04-24T17:27:44;26.50;99.90
22607;DHT22;11470;20.968;105.834;2023-04-24T17:33:24;26.50;99.90
22607;DHT22;11470;20.968;105.834;2023-04-24T17:38:30;26.40;99.90
22607;DHT22;11470;20.968;105.834;2023-04-24T17:43:35;26.40;99.90
22607;DHT22;11470;20.968;105.834;2023-04-24T17:48:42;26.40;99.90
22607;DHT22;11470;20.968;105.834;2023-04-24T17:53:49;26.30;99.90
22607;DHT22;11470;20.968;105.834;2023-04-24T17:58:56;26.30;99.90
22607;DHT22;11470;20.968;105.834;2023-04-24T18:04:02;26.30;99.90
22607;DHT22;11470;20.968;105.834;2023-04-24T18:09:08;26.20;99.90
22607;DHT22;11470;20.968;105.834;2023-04-24T18:14:14;26.20;99.90
22607;DHT22;11470;20.968;105.834;2023-04-24T18:19:19;26.20;99.90
22607;DHT22;11470;20.968;105.834;2023-04-24T18:24:25;26.10;99.90
22607;DHT22;11470;20.968;105.834;2023-04-24T18:29:30;26.10;99.90
22607;DHT22;11470;20.968;105.834;2023-04-24T18:34:36;26.10;99.90
22607;DHT22;11470;20.968;105.834;2023-04-24T18:39:42;26.10;99.90
22607;DHT22;11470;20.968;105.834;2023-04-24T18:44:48;26.20;99.90
22607;DHT22;11470;20.968;105.834;2023-04-24T18:49:54;26.20;99.90
22607;DHT22;11470;20.968;105.834;2023-04-24T18:54:59;26.10;99.90
22607;DHT22;11470;20.968;105.834;2023-04-24T19:00:06;26.00;99.90
22607;DHT22;11470;20.968;105.834;2023-04-24T19:05:12;26.00;99.90
22607;DHT22;11470;20.968;105.834;2023-04-24T19:10:17;26.00;99.90
22607;DHT22;11470;20.968;105.834;2023-04-24T19:15:24;26.00;99.90
22607;DHT22;11470;20.968;105.834;2023-04-24T19:20:31;26.00;99.90
22607;DHT22;11470;20.968;105.834;2023-04-24T19:25:36;26.00;99.90
22607;DHT22;11470;20.968;105.834;2023-04-24T19:30:43;26.00;99.90
22607;DHT22;11470;20.968;105.834;2023-04-24T19:35:49;26.00;99.90
22607;DHT22;11470;20.968;105.834;2023-04-24T19:40:54;26.00;99.90
22607;DHT22;11470;20.968;105.834;2023-04-24T19:46:00;25.90;99.90
22607;DHT22;11470;20.968;105.834;2023-04-24T19:51:05;25.80;99.90
22607;DHT22;11470;20.968;105.834;2023-04-24T19:56:11;25.70;99.90
22607;DHT22;11470;20.968;105.834;2023-04-24T20:01:17;25.80;99.90
22607;DHT22;11470;20.968;105.834;2023-04-24T20:06:22;25.90;99.90
22607;DHT22;11470;20.968;105.834;2023-04-24T20:11:29;25.80;99.90
22607;DHT22;11470;20.968;105.834;2023-04-24T20:16:34;25.80;99.90
22607;DHT22;11470;20.968;105.834;2023-04-24T20:21:41;25.80;99.90
22607;DHT22;11470;20.968;105.834;2023-04-24T20:26:46;25.80;99.90
22607;DHT22;11470;20.968;105.834;2023-04-24T20:31:52;25.90;99.90
22607;DHT22;11470;20.968;105.834;2023-04-24T20:36:57;25.80;99.90
22607;DHT22;11470;20.968;105.834;2023-04-24T20:42:04;25.70;99.90
22607;DHT22;11470;20.968;105.834;2023-04-24T20:47:10;25.60;99.90
22607;DHT22;11470;20.968;105.834;2023-04-24T20:52:15;25.50;99.90
22607;DHT22;11470;20.968;105.834;2023-04-24T20:57:21;25.50;99.90
22607;DHT22;11470;20.968;105.834;2023-04-24T21:02:27;25.50;99.90
22607;DHT22;11470;20.968;105.834;2023-04-24T21:07:33;25.60;99.90
22607;DHT22;11470;20.968;105.834;2023-04-24T21:12:39;25.70;99.90
22607;DHT22;11470;20.968;105.834;2023-04-24T21:17:44;25.70;99.90
22607;DHT22;11470;20.968;105.834;2023-04-24T21:22:51;25.80;99.90
22607;DHT22;11470;20.968;105.834;2023-04-24T21:27:58;25.70;99.90
22607;DHT22;11470;20.968;105.834;2023-04-24T21:33:04;25.70;99.90
22607;DHT22;11470;20.968;105.834;2023-04-24T21:38:09;25.80;99.90
22607;DHT22;11470;20.968;105.834;2023-04-24T21:43:16;25.90;99.90
22607;DHT22;11470;20.968;105.834;2023-04-24T21:48:25;25.80;99.90
22607;DHT22;11470;20.968;105.834;2023-04-24T21:53:31;25.80;99.90
22607;DHT22;11470;20.968;105.834;2023-04-24T21:58:36;25.80;99.90
22607;DHT22;11470;20.968;105.834;2023-04-24T22:03:43;25.80;99.90
22607;DHT22;11470;20.968;105.834;2023-04-24T22:08:48;25.80;99.90
22607;DHT22;11470;20.968;105.834;2023-04-24T22:13:54;25.80;99.90
22607;DHT22;11470;20.968;105.834;2023-04-24T22:19:00;25.80;99.90
22607;DHT22;11470;20.968;105.834;2023-04-24T22:24:07;25.80;99.90
22607;DHT22;11470;20.968;105.834;2023-04-24T22:29:13;25.70;99.90
22607;DHT22;11470;20.968;105.834;2023-04-24T22:34:19;25.70;99.90
22607;DHT22;11470;20.968;105.834;2023-04-24T22:39:25;25.70;99.90
22607;DHT22;11470;20.968;105.834;2023-04-24T22:44:31;25.70;99.90
22607;DHT22;11470;20.968;105.834;2023-04-24T22:49:37;25.70;99.90
22607;DHT22;11470;20.968;105.834;2023-04-24T22:54:43;25.70;99.90
22607;DHT22;11470;20.968;105.834;2023-04-24T22:59:52;25.90;99.90
22607;DHT22;11470;20.968;105.834;2023-04-24T23:05:04;25.90;99.90
22607;DHT22;11470;20.968;105.834;2023-04-24T23:10:12;25.90;99.90
22607;DHT22;11470;20.968;105.834;2023-04-24T23:15:18;25.90;99.90
22607;DHT22;11470;20.968;105.834;2023-04-24T23:20:23;25.90;99.90
22607;DHT22;11470;20.968;105.834;2023-04-24T23:25:30;26.00;99.90
22607;DHT22;11470;20.968;105.834;2023-04-24T23:30:37;26.00;99.90
22607;DHT22;11470;20.968;105.834;2023-04-24T23:35:43;26.10;99.90
22607;DHT22;11470;20.968;105.834;2023-04-24T23:40:49;26.20;99.90
22607;DHT22;11470;20.968;105.834;2023-04-24T23:45:55;26.10;99.90
22607;DHT22;11470;20.968;105.834;2023-04-24T23:51:01;26.10;99.90
22607;DHT22;11470;20.968;105.834;2023-04-24T23:56:07;26.00;99.90
